createdAt,value
2023-05-10T00:01:56.974Z,10.27
2023-05-10T00:04:28.637Z,10.36
2023-05-10T00:06:56.283Z,10.10
2023-05-10T00:09:24.319Z,9.95
2023-05-10T00:11:51.822Z,9.97
2023-05-10T00:14:19.513Z,10.09
2023-05-10T00:16:48.666Z,9.94
2023-05-10T00:19:16.128Z,10.23
2023-05-10T00:21:44.124Z,10.42
2023-05-10T00:24:12.139Z,10.40
2023-05-10T00:26:42.135Z,10.33
2023-05-10T00:29:09.488Z,10.21
2023-05-10T00:31:36.769Z,10.25
2023-05-10T00:34:04.034Z,10.31
2023-05-10T00:36:32.468Z,10.15
2023-05-10T00:38:59.986Z,10.25
2023-05-10T00:41:27.282Z,10.25
2023-05-10T00:43:54.558Z,10.09
2023-05-10T00:46:22.717Z,9.85
2023-05-10T00:48:51.986Z,10.10
2023-05-10T00:51:19.756Z,10.00
2023-05-10T00:53:47.582Z,9.92
2023-05-10T00:56:16.564Z,10.13
2023-05-10T00:58:44.047Z,9.83
2023-05-10T01:01:12.111Z,10.07
2023-05-10T01:03:41.468Z,9.98
2023-05-10T01:06:09.084Z,9.99
2023-05-10T01:08:38.124Z,9.97
2023-05-10T01:11:06.335Z,9.92
2023-05-10T01:13:40.716Z,10.27
2023-05-10T01:16:09.322Z,10.33
2023-05-10T01:18:42.750Z,10.28
2023-05-10T01:21:33.280Z,10.37
2023-05-10T01:24:50.182Z,10.38
2023-05-10T01:28:00.895Z,10.17
2023-05-10T01:30:47.563Z,10.04
2023-05-10T01:33:30.286Z,9.83
2023-05-10T01:36:27.310Z,10.02
2023-05-10T01:39:08.957Z,9.97
2023-05-10T01:42:09.625Z,9.98
2023-05-10T01:44:54.208Z,9.85
2023-05-10T01:47:44.104Z,9.91
2023-05-10T01:50:19.908Z,9.82
2023-05-10T01:52:58.086Z,9.77
2023-05-10T01:55:34.320Z,9.95
2023-05-10T01:58:15.269Z,10.10
2023-05-10T02:00:46.819Z,10.22
2023-05-10T02:03:16.538Z,10.18
2023-05-10T02:05:47.156Z,10.13
2023-05-10T02:08:16.019Z,10.18
2023-05-10T02:10:46.854Z,10.08
2023-05-10T02:13:17.573Z,10.06
2023-05-10T02:15:49.632Z,9.95
2023-05-10T02:18:18.332Z,10.10
2023-05-10T02:20:48.115Z,10.19
2023-05-10T02:23:18.648Z,10.25
2023-05-10T02:25:49.488Z,10.35
2023-05-10T02:28:18.579Z,10.43
2023-05-10T02:30:49.166Z,10.50
2023-05-10T02:33:16.649Z,10.37
2023-05-10T02:35:44.180Z,10.20
2023-05-10T02:38:13.733Z,10.22
2023-05-10T02:40:43.745Z,10.14
2023-05-10T02:43:14.827Z,10.11
2023-05-10T02:45:44.728Z,10.07
2023-05-10T02:48:12.898Z,10.19
2023-05-10T02:50:46.344Z,10.15
2023-05-10T02:53:24.101Z,10.09
2023-05-10T02:55:54.874Z,10.00
2023-05-10T02:58:23.505Z,10.04
2023-05-10T03:00:51.739Z,10.03
2023-05-10T03:03:21.123Z,9.94
2023-05-10T03:05:48.413Z,9.89
2023-05-10T03:08:16.694Z,10.02
2023-05-10T03:11:16.130Z,9.91
2023-05-10T03:14:08.131Z,9.94
2023-05-10T03:16:48.179Z,9.67
2023-05-10T03:19:29.047Z,9.77
2023-05-10T03:22:01.420Z,9.76
2023-05-10T03:24:29.603Z,9.72
2023-05-10T03:27:04.001Z,9.72
2023-05-10T03:29:33.348Z,9.66
2023-05-10T03:32:01.720Z,9.61
2023-05-10T03:34:32.726Z,9.53
2023-05-10T03:37:00.154Z,9.71
2023-05-10T03:39:28.345Z,9.77
2023-05-10T03:41:55.586Z,9.79
2023-05-10T03:44:23.760Z,9.57
2023-05-10T03:46:51.032Z,9.64
2023-05-10T03:49:18.391Z,9.54
2023-05-10T03:51:46.527Z,9.60
2023-05-10T03:54:13.823Z,9.59
2023-05-10T03:56:42.893Z,9.74
2023-05-10T03:59:11.117Z,9.78
2023-05-10T04:01:38.551Z,9.66
2023-05-10T04:04:05.931Z,9.62
2023-05-10T04:06:34.182Z,9.61
2023-05-10T04:09:05.150Z,9.81
2023-05-10T04:11:32.490Z,9.85
2023-05-10T04:13:59.754Z,9.97
2023-05-10T04:16:28.014Z,9.94
2023-05-10T04:18:56.308Z,10.02
2023-05-10T04:21:24.584Z,9.95
2023-05-10T04:23:52.162Z,10.20
2023-05-10T04:26:20.173Z,10.27
2023-05-10T04:28:47.866Z,10.59
2023-05-10T04:31:15.172Z,10.54
2023-05-10T04:33:43.357Z,10.81
2023-05-10T04:36:10.655Z,11.36
2023-05-10T04:38:38.774Z,11.20
2023-05-10T04:41:11.586Z,11.94
2023-05-10T04:43:39.581Z,12.59
2023-05-10T04:46:08.682Z,15.63
2023-05-10T04:48:37.059Z,18.76
2023-05-10T04:51:06.188Z,15.15
2023-05-10T04:53:33.805Z,14.27
2023-05-10T04:56:02.051Z,14.91
2023-05-10T04:58:30.262Z,13.70
2023-05-10T05:00:58.402Z,13.24
2023-05-10T05:03:25.787Z,13.11
2023-05-10T05:05:54.112Z,13.44
2023-05-10T05:08:21.423Z,13.00
2023-05-10T05:10:51.417Z,13.24
2023-05-10T05:13:20.093Z,15.51
2023-05-10T05:15:48.683Z,16.72
2023-05-10T05:18:16.865Z,17.15
2023-05-10T05:20:44.643Z,14.40
2023-05-10T05:23:12.750Z,18.13
2023-05-10T05:25:40.004Z,18.17
2023-05-10T05:28:07.272Z,15.93
2023-05-10T05:30:35.536Z,19.40
2023-05-10T05:33:03.753Z,19.72
2023-05-10T05:35:31.873Z,15.53
2023-05-10T05:38:00.010Z,14.78
2023-05-10T05:40:27.319Z,14.56
2023-05-10T05:42:54.558Z,14.83
2023-05-10T05:45:22.586Z,14.54
2023-05-10T05:47:50.832Z,13.92
2023-05-10T05:50:18.973Z,13.08
2023-05-10T05:52:47.110Z,13.47
2023-05-10T05:55:15.385Z,13.89
2023-05-10T05:57:42.885Z,13.72
2023-05-10T06:00:10.768Z,12.92
2023-05-10T06:02:38.891Z,13.62
2023-05-10T06:05:06.878Z,13.76
2023-05-10T06:07:34.973Z,13.28
2023-05-10T06:10:04.025Z,13.17
2023-05-10T06:12:31.289Z,13.73
2023-05-10T06:14:59.402Z,13.35
2023-05-10T06:17:26.664Z,13.73
2023-05-10T06:19:54.877Z,13.98
2023-05-10T06:22:23.906Z,13.96
2023-05-10T06:24:52.155Z,14.02
2023-05-10T06:27:20.275Z,14.00
2023-05-10T06:29:50.471Z,14.18
2023-05-10T06:32:20.324Z,14.56
2023-05-10T06:34:47.863Z,14.92
2023-05-10T06:37:16.002Z,14.68
2023-05-10T06:39:43.237Z,15.14
2023-05-10T06:42:11.398Z,15.96
2023-05-10T06:44:39.586Z,16.05
2023-05-10T06:47:07.666Z,16.40
2023-05-10T06:49:35.872Z,16.56
2023-05-10T06:52:04.068Z,16.05
2023-05-10T06:54:32.182Z,17.49
2023-05-10T06:57:01.836Z,16.41
2023-05-10T06:59:30.390Z,15.75
2023-05-10T07:01:58.716Z,15.34
2023-05-10T07:04:26.816Z,16.11
2023-05-10T07:06:54.379Z,16.73
2023-05-10T07:09:22.551Z,16.86
2023-05-10T07:11:50.619Z,16.32
2023-05-10T07:14:18.825Z,16.13
2023-05-10T07:16:47.294Z,16.26
2023-05-10T07:19:16.017Z,16.33
2023-05-10T07:21:44.514Z,15.96
2023-05-10T07:24:12.747Z,15.87
2023-05-10T07:26:40.983Z,16.11
2023-05-10T07:29:08.317Z,17.41
2023-05-10T07:31:36.781Z,16.87
2023-05-10T07:34:04.872Z,16.49
2023-05-10T07:36:32.188Z,16.05
2023-05-10T07:39:00.332Z,16.89
2023-05-10T07:41:28.689Z,17.29
2023-05-10T07:43:56.846Z,17.05
2023-05-10T07:46:24.964Z,16.09
2023-05-10T07:48:53.143Z,16.65
2023-05-10T07:51:21.256Z,16.43
2023-05-10T07:53:49.408Z,16.50
2023-05-10T07:56:32.932Z,16.75
2023-05-10T07:59:01.487Z,18.95
2023-05-10T08:01:33.707Z,18.75
2023-05-10T08:04:03.088Z,17.66
2023-05-10T08:06:31.488Z,17.48
2023-05-10T08:08:59.585Z,17.10
2023-05-10T08:11:28.789Z,17.35
2023-05-10T08:13:57.021Z,18.31
2023-05-10T08:16:27.775Z,17.49
2023-05-10T08:18:56.771Z,18.04
2023-05-10T08:21:25.170Z,16.93
2023-05-10T08:23:53.250Z,16.35
2023-05-10T08:26:22.751Z,18.05
2023-05-10T08:28:50.875Z,18.82
2023-05-10T08:31:19.411Z,19.86
2023-05-10T08:33:47.544Z,18.13
2023-05-10T08:36:20.815Z,17.69
2023-05-10T08:38:53.277Z,18.67
2023-05-10T08:41:23.362Z,19.05
2023-05-10T08:43:52.986Z,19.63
2023-05-10T08:46:23.355Z,18.82
2023-05-10T08:48:55.883Z,19.50
2023-05-10T08:51:29.078Z,19.74
2023-05-10T08:53:57.062Z,19.18
2023-05-10T08:56:25.297Z,19.34
2023-05-10T08:58:53.652Z,19.78
2023-05-10T09:01:22.807Z,18.78
2023-05-10T09:03:52.122Z,19.73
2023-05-10T09:06:19.964Z,18.76
2023-05-10T09:08:48.878Z,19.87
2023-05-10T09:11:16.434Z,19.91
2023-05-10T09:13:45.083Z,19.60
2023-05-10T09:16:21.325Z,18.68
2023-05-10T09:18:50.687Z,18.88
2023-05-10T09:21:20.934Z,18.74
2023-05-10T09:23:51.473Z,19.72
2023-05-10T09:26:24.550Z,19.57
2023-05-10T09:29:00.513Z,18.18
2023-05-10T09:31:48.583Z,19.63
2023-05-10T09:34:22.248Z,20.60
2023-05-10T09:36:55.156Z,20.69
2023-05-10T09:39:35.377Z,21.07
2023-05-10T09:42:11.496Z,19.52
2023-05-10T09:44:39.419Z,19.67
2023-05-10T09:47:07.527Z,18.80
2023-05-10T09:49:36.593Z,20.35
2023-05-10T09:52:09.165Z,19.89
2023-05-10T09:54:37.187Z,19.67
2023-05-10T09:57:24.723Z,19.49
2023-05-10T09:59:52.918Z,18.54
2023-05-10T10:02:20.985Z,20.12
2023-05-10T10:04:52.146Z,20.70
2023-05-10T10:07:28.242Z,20.98
2023-05-10T10:09:56.872Z,21.06
2023-05-10T10:12:24.837Z,21.21
2023-05-10T10:14:54.881Z,20.85
2023-05-10T10:17:29.037Z,19.39
2023-05-10T10:19:58.525Z,19.36
2023-05-10T10:22:27.504Z,19.19
2023-05-10T10:24:56.601Z,18.63
2023-05-10T10:27:42.887Z,18.64
2023-05-10T10:30:40.266Z,19.28
2023-05-10T10:33:57.739Z,18.82
2023-05-10T10:36:28.359Z,18.63
2023-05-10T10:39:00.407Z,18.45
2023-05-10T10:41:44.188Z,18.62
2023-05-10T10:44:39.332Z,18.25
2023-05-10T10:47:19.771Z,18.07
2023-05-10T10:49:53.978Z,17.94
2023-05-10T10:52:34.621Z,18.50
2023-05-10T10:55:23.599Z,18.33
2023-05-10T10:58:03.483Z,18.14
2023-05-10T11:00:38.295Z,18.60
2023-05-10T11:03:18.063Z,19.05
2023-05-10T11:05:52.468Z,20.55
2023-05-10T11:08:37.545Z,19.82
2023-05-10T11:11:08.683Z,18.98
2023-05-10T11:13:49.223Z,18.40
2023-05-10T11:16:28.043Z,18.21
2023-05-10T11:19:10.537Z,18.21
2023-05-10T11:21:51.842Z,18.24
2023-05-10T11:24:27.000Z,17.91
2023-05-10T11:26:54.946Z,18.20
2023-05-10T11:29:24.313Z,18.41
2023-05-10T11:31:53.329Z,18.48
2023-05-10T11:34:32.013Z,18.47
2023-05-10T11:36:59.621Z,18.65
2023-05-10T11:39:32.913Z,18.76
2023-05-10T11:42:02.006Z,19.11
2023-05-10T11:44:32.858Z,19.05
2023-05-10T11:47:02.683Z,19.29
2023-05-10T11:49:33.459Z,19.42
2023-05-10T11:52:09.331Z,19.10
2023-05-10T11:54:38.489Z,19.00
2023-05-10T11:57:07.503Z,19.15
2023-05-10T11:59:34.750Z,19.13
2023-05-10T12:02:02.353Z,19.26
2023-05-10T12:04:30.789Z,19.38
2023-05-10T12:06:58.120Z,18.99
2023-05-10T12:11:58.951Z,19.19
2023-05-10T12:14:26.281Z,19.55
2023-05-10T12:16:53.679Z,19.68
2023-05-10T12:19:22.838Z,20.22
2023-05-10T12:21:50.733Z,20.25
2023-05-10T12:24:19.131Z,20.06
2023-05-10T12:26:49.520Z,21.55
2023-05-10T12:29:21.305Z,20.51
2023-05-10T12:32:00.708Z,21.05
2023-05-10T12:34:37.380Z,21.49
2023-05-10T12:37:05.662Z,21.26
2023-05-10T12:39:47.265Z,20.69
2023-05-10T12:42:16.337Z,20.46
2023-05-10T12:44:45.364Z,19.93
2023-05-10T12:47:13.329Z,20.15
2023-05-10T12:49:40.594Z,19.87
2023-05-10T12:52:07.835Z,20.17
2023-05-10T12:54:37.495Z,20.48
2023-05-10T12:57:05.425Z,20.66
2023-05-10T12:59:33.936Z,21.25
2023-05-10T13:02:03.784Z,20.61
2023-05-10T13:04:31.723Z,20.33
2023-05-10T13:07:00.756Z,19.90
2023-05-10T13:09:32.255Z,20.02
2023-05-10T13:12:00.247Z,19.62
2023-05-10T13:14:31.429Z,19.65
2023-05-10T13:16:59.650Z,19.81
2023-05-10T13:19:27.718Z,19.73
2023-05-10T13:21:56.017Z,19.56
2023-05-10T13:24:23.540Z,19.23
2023-05-10T13:26:50.819Z,19.16
2023-05-10T13:29:19.274Z,18.99
2023-05-10T13:31:47.068Z,19.21
2023-05-10T13:34:14.344Z,19.02
2023-05-10T13:36:41.523Z,18.79
2023-05-10T13:39:09.677Z,18.12
2023-05-10T13:41:37.910Z,18.19
2023-05-10T13:44:05.183Z,18.14
2023-05-10T13:46:32.734Z,18.18
2023-05-10T13:49:00.067Z,18.26
2023-05-10T13:51:27.783Z,18.35
2023-05-10T13:53:54.964Z,18.29
2023-05-10T13:56:22.198Z,18.41
2023-05-10T13:58:49.344Z,18.42
2023-05-10T14:01:16.620Z,18.65
2023-05-10T14:03:44.000Z,18.72
2023-05-10T14:06:11.569Z,18.71
2023-05-10T14:08:38.862Z,18.60
2023-05-10T14:11:06.309Z,18.71
2023-05-10T14:13:34.013Z,18.98
2023-05-10T14:16:01.897Z,19.29
2023-05-10T14:18:29.578Z,19.44
2023-05-10T14:20:56.984Z,19.37
2023-05-10T14:23:27.255Z,19.33
2023-05-10T14:25:54.594Z,19.16
2023-05-10T14:28:22.108Z,19.48
2023-05-10T14:30:49.434Z,19.44
2023-05-10T14:33:18.640Z,19.65
2023-05-10T14:35:46.905Z,19.97
2023-05-10T14:38:16.349Z,19.61
2023-05-10T14:40:45.548Z,19.87
2023-05-10T14:43:13.247Z,19.79
2023-05-10T14:45:40.478Z,19.51
2023-05-10T14:48:09.476Z,19.59
2023-05-10T14:50:37.512Z,19.04
2023-05-10T14:53:05.061Z,19.24
2023-05-10T14:55:32.403Z,19.07
2023-05-10T14:57:59.830Z,19.17
2023-05-10T15:00:28.056Z,19.57
2023-05-10T15:02:55.799Z,19.44
2023-05-10T15:05:25.447Z,19.63
2023-05-10T15:07:53.681Z,19.37
2023-05-10T15:10:20.940Z,19.10
2023-05-10T15:12:48.152Z,18.93
2023-05-10T15:15:16.381Z,19.04
2023-05-10T15:17:43.888Z,19.20
2023-05-10T15:20:11.511Z,18.76
2023-05-10T15:22:39.463Z,18.83
2023-05-10T15:25:07.312Z,19.11
2023-05-10T15:27:36.563Z,19.35
2023-05-10T15:30:05.399Z,19.31
2023-05-10T15:32:32.661Z,19.49
2023-05-10T15:35:01.761Z,19.91
2023-05-10T15:37:29.942Z,19.87
2023-05-10T15:40:04.777Z,19.65
2023-05-10T15:42:33.033Z,19.44
2023-05-10T15:45:01.325Z,19.28
2023-05-10T15:47:31.445Z,19.26
2023-05-10T15:50:00.485Z,19.35
2023-05-10T15:52:29.620Z,19.22
2023-05-10T15:54:56.836Z,19.36
2023-05-10T15:57:25.896Z,19.68
2023-05-10T15:59:54.912Z,19.63
2023-05-10T16:02:24.243Z,19.59
2023-05-10T16:04:53.239Z,19.25
2023-05-10T16:07:22.268Z,19.00
2023-05-10T16:09:51.358Z,18.94
2023-05-10T16:12:18.775Z,19.01
2023-05-10T16:14:48.063Z,18.97
2023-05-10T16:17:15.722Z,19.15
2023-05-10T16:19:46.993Z,19.24
2023-05-10T16:22:15.993Z,19.04
2023-05-10T16:24:44.118Z,18.94
2023-05-10T16:27:12.745Z,18.78
2023-05-10T16:29:43.466Z,18.72
2023-05-10T16:32:11.634Z,18.67
2023-05-10T16:34:38.894Z,18.81
2023-05-10T16:37:06.255Z,18.68
2023-05-10T16:39:34.300Z,18.58
2023-05-10T16:42:03.332Z,18.52
2023-05-10T16:44:31.357Z,18.43
2023-05-10T16:47:00.438Z,18.32
2023-05-10T16:49:27.821Z,18.10
2023-05-10T16:51:58.532Z,18.05
2023-05-10T16:54:29.388Z,17.92
2023-05-10T16:56:56.569Z,17.84
2023-05-10T16:59:23.786Z,17.84
2023-05-10T17:01:53.410Z,17.78
2023-05-10T17:04:22.515Z,17.79
2023-05-10T17:06:49.719Z,17.64
2023-05-10T17:09:16.916Z,17.54
2023-05-10T17:11:44.102Z,17.57
2023-05-10T17:14:11.347Z,17.42
2023-05-10T17:16:38.666Z,17.44
2023-05-10T17:19:06.031Z,17.28
2023-05-10T17:21:33.308Z,17.24
2023-05-10T17:24:00.593Z,17.07
2023-05-10T17:26:27.956Z,16.96
2023-05-10T17:28:59.110Z,16.99
2023-05-10T17:31:30.113Z,16.87
2023-05-10T17:34:00.070Z,16.70
2023-05-10T17:36:28.526Z,16.81
2023-05-10T17:38:57.655Z,16.72
2023-05-10T17:41:24.971Z,16.65
2023-05-10T17:43:52.167Z,16.59
2023-05-10T17:46:19.404Z,16.50
2023-05-10T17:48:48.412Z,16.56
2023-05-10T17:51:20.595Z,16.50
2023-05-10T17:53:47.873Z,16.28
2023-05-10T17:56:15.131Z,16.23
2023-05-10T17:58:42.458Z,16.06
2023-05-10T18:01:10.944Z,16.00
2023-05-10T18:03:39.992Z,16.08
2023-05-10T18:06:09.066Z,15.94
2023-05-10T18:08:36.389Z,15.72
2023-05-10T18:11:05.356Z,15.58
2023-05-10T18:13:34.431Z,15.54
2023-05-10T18:16:05.974Z,15.59
2023-05-10T18:18:33.313Z,15.36
2023-05-10T18:21:01.080Z,15.42
2023-05-10T18:23:28.357Z,15.49
2023-05-10T18:25:56.839Z,15.06
2023-05-10T18:28:25.037Z,15.07
2023-05-10T18:30:55.463Z,15.06
2023-05-10T18:33:22.821Z,14.88
2023-05-10T18:35:51.189Z,14.74
2023-05-10T18:38:20.411Z,14.56
2023-05-10T18:40:48.576Z,14.53
2023-05-10T18:43:15.856Z,14.36
2023-05-10T18:45:44.249Z,14.61
2023-05-10T18:48:12.369Z,14.67
2023-05-10T18:50:40.362Z,14.53
2023-05-10T18:53:07.900Z,14.65
2023-05-10T18:55:37.016Z,14.54
2023-05-10T18:58:05.058Z,14.31
2023-05-10T19:00:36.356Z,14.19
2023-05-10T19:03:04.231Z,14.05
2023-05-10T19:05:31.911Z,13.96
2023-05-10T19:07:59.244Z,13.84
2023-05-10T19:10:26.704Z,13.78
2023-05-10T19:12:53.999Z,13.72
2023-05-10T19:15:23.686Z,13.70
2023-05-10T19:17:51.305Z,13.68
2023-05-10T19:20:18.668Z,13.55
2023-05-10T19:22:58.438Z,13.75
2023-05-10T19:25:35.673Z,13.59
2023-05-10T19:28:02.937Z,13.54
2023-05-10T19:30:32.144Z,13.46
2023-05-10T19:33:04.362Z,13.37
2023-05-10T19:35:31.705Z,13.34
2023-05-10T19:37:59.696Z,13.33
2023-05-10T19:40:27.052Z,13.30
2023-05-10T19:42:57.293Z,13.41
2023-05-10T19:45:25.386Z,13.30
2023-05-10T19:47:53.009Z,13.16
2023-05-10T19:50:20.602Z,13.30
2023-05-10T19:52:48.680Z,13.12
2023-05-10T19:55:28.399Z,13.01
2023-05-10T19:57:56.014Z,12.92
2023-05-10T20:00:23.507Z,13.01
2023-05-10T20:02:51.027Z,12.81
2023-05-10T20:05:18.404Z,12.82
2023-05-10T20:07:45.777Z,12.74
2023-05-10T20:10:13.136Z,12.59
2023-05-10T20:15:27.676Z,12.35
2023-05-10T20:17:56.981Z,12.25
2023-05-10T20:20:28.259Z,12.31
2023-05-10T20:22:56.046Z,12.10
2023-05-10T20:25:30.041Z,12.07
2023-05-10T20:27:59.395Z,12.03
2023-05-10T20:30:27.027Z,11.99
2023-05-10T20:33:04.577Z,12.09
2023-05-10T20:35:34.452Z,12.01
2023-05-10T20:38:02.708Z,12.01
2023-05-10T20:40:30.004Z,11.89
2023-05-10T20:42:58.152Z,11.87
2023-05-10T20:45:26.319Z,11.72
2023-05-10T20:47:54.519Z,11.80
2023-05-10T20:50:21.768Z,11.70
2023-05-10T20:52:52.445Z,11.70
2023-05-10T20:55:20.847Z,11.53
2023-05-10T20:57:48.868Z,11.37
2023-05-10T21:00:24.189Z,11.52
2023-05-10T21:02:52.244Z,11.50
2023-05-10T21:05:21.441Z,11.37
2023-05-10T21:07:49.713Z,11.42
2023-05-10T21:10:17.362Z,11.05
2023-05-10T21:12:46.461Z,11.00
2023-05-10T21:15:13.846Z,11.20
2023-05-10T21:17:41.952Z,11.03
2023-05-10T21:20:10.012Z,10.94
2023-05-10T21:22:37.290Z,11.06
2023-05-10T21:25:06.513Z,10.90
2023-05-10T21:27:35.108Z,10.90
2023-05-10T21:30:04.827Z,10.72
2023-05-10T21:32:32.159Z,10.78
2023-05-10T21:34:59.625Z,10.87
2023-05-10T21:37:26.939Z,10.84
2023-05-10T21:39:55.096Z,10.95
2023-05-10T21:42:22.353Z,10.93
2023-05-10T21:44:49.618Z,10.84
2023-05-10T21:47:17.710Z,11.25
2023-05-10T21:49:45.861Z,10.89
2023-05-10T21:52:14.075Z,10.64
2023-05-10T21:54:43.426Z,10.73
2023-05-10T21:57:11.578Z,10.72
2023-05-10T21:59:40.154Z,10.92
2023-05-10T22:02:08.458Z,11.17
2023-05-10T22:04:36.653Z,11.07
2023-05-10T22:07:04.923Z,11.28
2023-05-10T22:09:32.183Z,11.37
2023-05-10T22:11:59.446Z,11.36
2023-05-10T22:14:27.592Z,11.35
2023-05-10T22:16:55.954Z,11.42
2023-05-10T22:19:24.254Z,11.46
2023-05-10T22:21:53.366Z,11.58
2023-05-10T22:24:20.641Z,11.54
2023-05-10T22:26:47.956Z,11.58
2023-05-10T22:29:15.319Z,11.74
2023-05-10T22:31:43.367Z,11.69
2023-05-10T22:34:10.705Z,11.50
2023-05-10T22:36:39.158Z,11.48
2023-05-10T22:39:06.462Z,11.48
2023-05-10T22:41:34.852Z,11.64
2023-05-10T22:44:02.950Z,11.54
2023-05-10T22:46:33.832Z,11.62
2023-05-10T22:49:02.075Z,11.55
2023-05-10T22:51:29.370Z,11.69
2023-05-10T22:53:56.577Z,11.61
2023-05-10T22:56:23.876Z,11.68
2023-05-10T22:58:53.017Z,11.58
2023-05-10T23:01:20.431Z,11.53
2023-05-10T23:03:47.813Z,11.68
2023-05-10T23:06:15.136Z,11.63
2023-05-10T23:08:42.442Z,11.73
2023-05-10T23:11:10.499Z,11.64
2023-05-10T23:13:37.777Z,11.77
2023-05-10T23:16:06.823Z,11.73
2023-05-10T23:18:35.220Z,11.68
2023-05-10T23:21:03.326Z,11.63
2023-05-10T23:23:32.946Z,11.61
2023-05-10T23:26:02.169Z,11.62
2023-05-10T23:28:30.287Z,11.55
2023-05-10T23:30:59.319Z,11.57
2023-05-10T23:33:27.063Z,11.48
2023-05-10T23:35:55.394Z,11.61
2023-05-10T23:38:23.599Z,11.57
2023-05-10T23:40:51.791Z,11.60
2023-05-10T23:43:21.007Z,11.85
2023-05-10T23:45:56.911Z,11.58
2023-05-10T23:48:25.320Z,11.73
2023-05-10T23:50:52.614Z,11.58
2023-05-10T23:53:20.022Z,11.68
2023-05-10T23:55:48.192Z,11.60
2023-05-10T23:58:16.631Z,11.55
